Montrose, CO

9:05 PM MDT on August 21, 2014 (GMT -0600)
Montrose Regional | Change Station
CLOSE
Current Station
Airport
Location: Montrose,
Elevation: 5758 ft
Nearby Weather Stations

Elev 5758 ft 38.51 °N, 107.90 °W | Updated 12 minutes ago

Clear
Clear
72 °F
Feels Like 72 °F
N
5
Wind Variable Wind from South

Today
High -- | Low -- °F
--% Chance of Precip.
Yesterday
High -- | Low -- °F
Precip. -- in
6:31 AM 7:57 PM
Waning Crescent, 11% visible
Pressure 29.96 in
Visibility 10.0 miles
Clouds Clear
Dew Point 48 °F
Humidity 43%
Rainfall 0.00 in
Snow Depth Not available.
UV 0 out of 12
Pollen 8.90 out of 12
Air Quality Not available.
Flu Activity Not available.
METAR KMTJ 220253Z AUTO 17004KT 10SM CLR 22/09 A3018 RMK AO2 SLP146 T02220089 53005

More Conditions Fewer Conditions

Pressure 29.96 in
Visibility 10.0 miles
Clouds Clear
Dew Point 48 °F
Humidity 43%
Rainfall 0.00 in
Snow Depth Not available.
UV 0 out of 12
Pollen 8.90 out of 12
Air Quality Not available.
Flu Activity Not available.
METAR KMTJ 220253Z AUTO 17004KT 10SM CLR 22/09 A3018 RMK AO2 SLP146 T02220089 53005

More Conditions Fewer Conditions

10-Day Weather Forecast

Almanac

Astronomy

Aug. 21, 2014 Rise Set
Actual Time 6:31 AM MDT 7:57 PM MDT
Civil Twilight 6:03 AM MDT 8:24 PM MDT
Nautical Twilight 5:30 AM MDT 8:58 PM MDT
Astronomical Twilight 4:54 AM MDT 9:33 PM MDT
Moon 3:05 AM MDT (8/21) 5:26 PM MDT (8/21)
Length of Visible Light 14h 21m
Length of Day
13h 25m
Tomorrow will be 2m 16s shorter.
Waning Crescent, 11% of the Moon is Illuminated
Today
Waning Crescent
Aug 25
New
Sep 2
First Quarter
Sep 8
Full
Sep 15
Last Quarter

Today's Extremes

State Highs State Lows

Community

WunderPhotos

Upload Photos

1,746,112 photos uploaded!

WunderBlogs® & News

Nearby

Snow Depth

Station Depth Elevation
Idarado 6 in 9800 ft
Red Mountain Pass 0 in 11150 ft
Lone Cone 1 in 9600 ft
Mineral Creek 0 in 10040 ft
Lizard Head Pass 0 in 10200 ft

Earthquake Activity

City Distance Mag. Time & Date
No recent earthquake activity has been reported nearby.
Minimum magnitude displayed is 2.5.

Coastal Water Temperatures

Place Temperature
No Stations Reporting

Nearby Weather Stations